sensor_id;sensor_type;location;lat;lon;timestamp;pressure;altitude;pressure_sealevel;temperature;humidity
68994;BME280;56054;50.968;5.816;2023-04-10T05:40:46;101048.56;;;8.42;72.56
68994;BME280;56054;50.968;5.816;2023-04-10T05:44:05;101047.97;;;8.46;72.39
68994;BME280;56054;50.968;5.816;2023-04-10T05:47:24;101044.16;;;8.52;72.10
68994;BME280;56054;50.968;5.816;2023-04-10T05:50:34;101033.84;;;8.64;71.79
68994;BME280;56054;50.968;5.816;2023-04-10T05:53:49;101039.91;;;8.65;71.66
68994;BME280;56054;50.968;5.816;2023-04-10T05:57:08;101048.84;;;8.80;70.43
68994;BME280;56054;50.968;5.816;2023-04-10T06:00:39;101050.88;;;8.84;70.50
68994;BME280;56054;50.968;5.816;2023-04-10T06:04:02;101051.34;;;8.90;71.07
68994;BME280;56054;50.968;5.816;2023-04-10T06:07:03;101042.22;;;8.95;70.34
68994;BME280;56054;50.968;5.816;2023-04-10T06:10:06;101058.22;;;9.02;70.13
68994;BME280;56054;50.968;5.816;2023-04-10T06:13:09;101041.31;;;9.07;70.81
68994;BME280;56054;50.968;5.816;2023-04-10T06:16:10;101049.56;;;9.13;70.24
68994;BME280;56054;50.968;5.816;2023-04-10T06:19:10;101052.84;;;9.22;70.01
68994;BME280;56054;50.968;5.816;2023-04-10T06:22:11;101050.47;;;9.25;69.78
68994;BME280;56054;50.968;5.816;2023-04-10T06:25:12;101044.81;;;9.31;69.71
68994;BME280;56054;50.968;5.816;2023-04-10T06:28:12;101053.72;;;9.34;68.59
68994;BME280;56054;50.968;5.816;2023-04-10T06:31:18;101051.56;;;9.40;69.30
68994;BME280;56054;50.968;5.816;2023-04-10T06:34:19;101051.69;;;9.42;68.88
68994;BME280;56054;50.968;5.816;2023-04-10T06:37:29;101052.78;;;9.57;69.24
68994;BME280;56054;50.968;5.816;2023-04-10T06:40:30;101047.81;;;9.60;69.45
68994;BME280;56054;50.968;5.816;2023-04-10T06:43:32;101041.59;;;9.70;69.52
68994;BME280;56054;50.968;5.816;2023-04-10T06:46:33;101044.84;;;9.79;69.61
68994;BME280;56054;50.968;5.816;2023-04-10T06:49:33;101038.53;;;9.88;69.34
68994;BME280;56054;50.968;5.816;2023-04-10T06:52:34;101039.16;;;9.97;70.08
68994;BME280;56054;50.968;5.816;2023-04-10T06:55:34;101043.22;;;10.05;69.32
68994;BME280;56054;50.968;5.816;2023-04-10T06:58:34;101032.97;;;10.20;69.15
68994;BME280;56054;50.968;5.816;2023-04-10T07:01:35;101030.47;;;10.33;69.42
68994;BME280;56054;50.968;5.816;2023-04-10T07:04:35;101027.81;;;10.45;68.86
68994;BME280;56054;50.968;5.816;2023-04-10T07:07:36;101017.22;;;10.55;68.78
68994;BME280;56054;50.968;5.816;2023-04-10T07:10:36;101019.25;;;10.73;67.75
68994;BME280;56054;50.968;5.816;2023-04-10T07:13:37;101022.28;;;10.79;66.47
68994;BME280;56054;50.968;5.816;2023-04-10T07:16:37;101018.09;;;10.94;66.47
68994;BME280;56054;50.968;5.816;2023-04-10T07:19:38;101011.41;;;11.11;65.86
68994;BME280;56054;50.968;5.816;2023-04-10T07:22:38;101007.50;;;11.18;64.74
68994;BME280;56054;50.968;5.816;2023-04-10T07:25:40;101003.69;;;11.26;64.29
68994;BME280;56054;50.968;5.816;2023-04-10T07:28:41;101000.97;;;11.38;64.24
68994;BME280;56054;50.968;5.816;2023-04-10T07:31:41;101000.28;;;11.40;64.04
68994;BME280;56054;50.968;5.816;2023-04-10T07:34:43;100992.16;;;11.49;64.41
68994;BME280;56054;50.968;5.816;2023-04-10T07:37:43;100992.84;;;11.60;63.48
68994;BME280;56054;50.968;5.816;2023-04-10T07:40:44;100986.81;;;11.61;63.13
68994;BME280;56054;50.968;5.816;2023-04-10T07:43:44;100969.00;;;11.67;62.89
68994;BME280;56054;50.968;5.816;2023-04-10T07:46:44;100986.69;;;11.72;62.26
68994;BME280;56054;50.968;5.816;2023-04-10T07:49:45;100974.78;;;11.76;62.44
68994;BME280;56054;50.968;5.816;2023-04-10T07:52:45;100962.22;;;11.84;62.14
68994;BME280;56054;50.968;5.816;2023-04-10T07:55:46;100960.13;;;11.91;62.56
68994;BME280;56054;50.968;5.816;2023-04-10T07:58:46;100957.91;;;11.97;62.24
68994;BME280;56054;50.968;5.816;2023-04-10T08:01:47;100955.47;;;12.01;62.85
68994;BME280;56054;50.968;5.816;2023-04-10T08:04:47;100947.84;;;12.04;61.74
68994;BME280;56054;50.968;5.816;2023-04-10T08:07:48;100948.13;;;12.08;61.20
68994;BME280;56054;50.968;5.816;2023-04-10T08:10:48;100935.00;;;12.07;61.87
68994;BME280;56054;50.968;5.816;2023-04-10T08:13:50;100929.34;;;12.14;61.85
68994;BME280;56054;50.968;5.816;2023-04-10T08:16:50;100927.47;;;12.26;61.80
68994;BME280;56054;50.968;5.816;2023-04-10T08:19:50;100928.56;;;12.45;61.39
68994;BME280;56054;50.968;5.816;2023-04-10T08:22:51;100923.53;;;12.62;60.38
68994;BME280;56054;50.968;5.816;2023-04-10T08:25:51;100922.16;;;12.84;60.04
68994;BME280;56054;50.968;5.816;2023-04-10T08:28:53;100917.53;;;12.95;59.49
68994;BME280;56054;50.968;5.816;2023-04-10T08:31:54;100912.06;;;13.21;59.92
68994;BME280;56054;50.968;5.816;2023-04-10T08:34:55;100907.31;;;13.14;58.29
68994;BME280;56054;50.968;5.816;2023-04-10T08:37:55;100898.50;;;13.43;58.79
68994;BME280;56054;50.968;5.816;2023-04-10T08:40:56;100909.53;;;13.38;57.39
68994;BME280;56054;50.968;5.816;2023-04-10T08:43:57;100911.81;;;13.48;57.29
68994;BME280;56054;50.968;5.816;2023-04-10T08:46:58;100907.91;;;13.56;57.65
68994;BME280;56054;50.968;5.816;2023-04-10T08:50:05;100911.72;;;13.63;57.86
68994;BME280;56054;50.968;5.816;2023-04-10T08:53:11;100918.19;;;13.69;57.01
68994;BME280;56054;50.968;5.816;2023-04-10T08:56:12;100918.69;;;13.79;57.68
68994;BME280;56054;50.968;5.816;2023-04-10T08:59:13;100918.53;;;13.76;56.86
68994;BME280;56054;50.968;5.816;2023-04-10T09:02:13;100921.16;;;13.76;56.47
68994;BME280;56054;50.968;5.816;2023-04-10T09:05:14;100919.91;;;13.85;56.59
68994;BME280;56054;50.968;5.816;2023-04-10T09:08:14;100919.72;;;13.82;56.53
68994;BME280;56054;50.968;5.816;2023-04-10T09:11:15;100917.22;;;13.84;56.78
68994;BME280;56054;50.968;5.816;2023-04-10T09:14:22;100916.22;;;13.98;56.58
68994;BME280;56054;50.968;5.816;2023-04-10T09:17:23;100913.13;;;14.05;56.33
68994;BME280;56054;50.968;5.816;2023-04-10T09:20:25;100914.03;;;14.24;55.74
68994;BME280;56054;50.968;5.816;2023-04-10T09:23:26;100908.88;;;14.07;55.26
68994;BME280;56054;50.968;5.816;2023-04-10T09:26:32;100907.38;;;14.12;55.45
68994;BME280;56054;50.968;5.816;2023-04-10T09:32:44;100897.63;;;14.26;54.83
68994;BME280;56054;50.968;5.816;2023-04-10T09:35:47;100898.38;;;14.24;54.44
68994;BME280;56054;50.968;5.816;2023-04-10T09:38:50;100898.53;;;14.27;54.25
68994;BME280;56054;50.968;5.816;2023-04-10T09:41:52;100898.69;;;14.30;53.86
68994;BME280;56054;50.968;5.816;2023-04-10T09:44:54;100887.78;;;14.39;54.80
68994;BME280;56054;50.968;5.816;2023-04-10T09:48:04;100883.91;;;14.48;55.22
68994;BME280;56054;50.968;5.816;2023-04-10T09:51:05;100874.38;;;14.49;54.83
68994;BME280;56054;50.968;5.816;2023-04-10T09:54:06;100874.28;;;14.47;54.81
68994;BME280;56054;50.968;5.816;2023-04-10T09:57:06;100870.19;;;14.52;54.61
68994;BME280;56054;50.968;5.816;2023-04-10T10:00:07;100859.88;;;14.55;55.11
68994;BME280;56054;50.968;5.816;2023-04-10T10:03:13;100851.72;;;14.49;53.94
68994;BME280;56054;50.968;5.816;2023-04-10T10:06:13;100837.03;;;14.51;54.40
68994;BME280;56054;50.968;5.816;2023-04-10T10:09:14;100834.81;;;14.59;54.92
68994;BME280;56054;50.968;5.816;2023-04-10T10:12:16;100819.88;;;14.57;54.87
68994;BME280;56054;50.968;5.816;2023-04-10T10:15:24;100814.91;;;14.63;54.72
68994;BME280;56054;50.968;5.816;2023-04-10T10:18:43;100811.41;;;14.62;54.67
68994;BME280;56054;50.968;5.816;2023-04-10T10:21:45;100808.28;;;14.69;54.95
68994;BME280;56054;50.968;5.816;2023-04-10T10:24:46;100805.75;;;14.71;55.36
68994;BME280;56054;50.968;5.816;2023-04-10T10:27:48;100818.34;;;14.80;54.03
68994;BME280;56054;50.968;5.816;2023-04-10T10:30:49;100813.63;;;14.90;55.21
68994;BME280;56054;50.968;5.816;2023-04-10T10:33:51;100812.94;;;14.94;54.51
68994;BME280;56054;50.968;5.816;2023-04-10T10:36:51;100787.31;;;15.07;54.66
68994;BME280;56054;50.968;5.816;2023-04-10T10:39:58;100793.06;;;15.17;54.48
68994;BME280;56054;50.968;5.816;2023-04-10T10:43:06;100788.84;;;15.21;53.97
68994;BME280;56054;50.968;5.816;2023-04-10T10:46:33;100778.34;;;15.19;52.85
68994;BME280;56054;50.968;5.816;2023-04-10T10:49:57;100775.50;;;15.34;53.68
68994;BME280;56054;50.968;5.816;2023-04-10T10:52:57;100763.06;;;15.50;53.55
68994;BME280;56054;50.968;5.816;2023-04-10T10:55:58;100758.13;;;15.36;53.18
68994;BME280;56054;50.968;5.816;2023-04-10T10:58:58;100766.53;;;15.49;52.60
68994;BME280;56054;50.968;5.816;2023-04-10T11:02:15;100757.00;;;15.51;52.02
68994;BME280;56054;50.968;5.816;2023-04-10T11:08:49;100746.13;;;15.61;51.84
68994;BME280;56054;50.968;5.816;2023-04-10T11:11:57;100740.88;;;15.61;51.37
68994;BME280;56054;50.968;5.816;2023-04-10T11:17:57;100740.28;;;15.88;51.55
68994;BME280;56054;50.968;5.816;2023-04-10T11:21:09;100728.84;;;15.86;51.65
68994;BME280;56054;50.968;5.816;2023-04-10T11:24:09;100723.59;;;15.86;50.73
68994;BME280;56054;50.968;5.816;2023-04-10T11:27:42;100716.25;;;15.98;50.58
68994;BME280;56054;50.968;5.816;2023-04-10T11:30:43;100722.03;;;16.12;50.13
68994;BME280;56054;50.968;5.816;2023-04-10T11:33:48;100708.00;;;16.10;50.23
68994;BME280;56054;50.968;5.816;2023-04-10T11:36:49;100716.66;;;16.30;50.31
68994;BME280;56054;50.968;5.816;2023-04-10T11:40:02;100704.81;;;16.18;49.13
68994;BME280;56054;50.968;5.816;2023-04-10T11:43:13;100692.59;;;16.19;49.35
68994;BME280;56054;50.968;5.816;2023-04-10T11:46:13;100694.13;;;16.35;48.21
68994;BME280;56054;50.968;5.816;2023-04-10T11:49:19;100702.22;;;16.41;48.86
68994;BME280;56054;50.968;5.816;2023-04-10T11:52:24;100697.91;;;16.43;48.75
68994;BME280;56054;50.968;5.816;2023-04-10T11:55:37;100695.84;;;16.34;49.00
68994;BME280;56054;50.968;5.816;2023-04-10T11:58:38;100685.16;;;16.52;49.40
68994;BME280;56054;50.968;5.816;2023-04-10T12:01:39;100684.81;;;16.43;49.38
68994;BME280;56054;50.968;5.816;2023-04-10T12:04:41;100692.75;;;16.44;49.44
68994;BME280;56054;50.968;5.816;2023-04-10T12:07:42;100677.78;;;16.42;49.08
68994;BME280;56054;50.968;5.816;2023-04-10T12:10:46;100674.75;;;16.54;49.44
68994;BME280;56054;50.968;5.816;2023-04-10T12:13:47;100671.81;;;16.68;49.63
68994;BME280;56054;50.968;5.816;2023-04-10T12:16:51;100675.13;;;16.64;49.12
68994;BME280;56054;50.968;5.816;2023-04-10T12:19:51;100663.81;;;16.88;49.79
68994;BME280;56054;50.968;5.816;2023-04-10T12:22:53;100660.06;;;17.05;49.53
68994;BME280;56054;50.968;5.816;2023-04-10T12:29:11;100657.59;;;17.36;45.72
68994;BME280;56054;50.968;5.816;2023-04-10T12:32:12;100644.09;;;17.25;45.37
68994;BME280;56054;50.968;5.816;2023-04-10T12:35:12;100641.00;;;17.11;44.80
68994;BME280;56054;50.968;5.816;2023-04-10T12:38:13;100639.47;;;17.18;44.68
68994;BME280;56054;50.968;5.816;2023-04-10T12:41:20;100636.31;;;17.02;45.05
68994;BME280;56054;50.968;5.816;2023-04-10T12:44:20;100627.84;;;17.09;45.36
68994;BME280;56054;50.968;5.816;2023-04-10T12:47:22;100631.06;;;17.28;45.44
68994;BME280;56054;50.968;5.816;2023-04-10T12:50:22;100630.44;;;17.35;44.67
68994;BME280;56054;50.968;5.816;2023-04-10T12:53:23;100599.94;;;17.66;44.42
68994;BME280;56054;50.968;5.816;2023-04-10T12:56:24;100598.91;;;17.61;43.74
68994;BME280;56054;50.968;5.816;2023-04-10T12:59:25;100611.88;;;17.82;44.30
68994;BME280;56054;50.968;5.816;2023-04-10T13:02:28;100597.84;;;17.81;43.91
68994;BME280;56054;50.968;5.816;2023-04-10T13:05:28;100598.94;;;17.62;43.05
68994;BME280;56054;50.968;5.816;2023-04-10T13:08:28;100594.06;;;17.74;43.33
68994;BME280;56054;50.968;5.816;2023-04-10T13:11:29;100591.94;;;17.63;41.82
68994;BME280;56054;50.968;5.816;2023-04-10T13:14:29;100601.97;;;17.74;42.78
68994;BME280;56054;50.968;5.816;2023-04-10T13:17:30;100583.16;;;17.61;41.93
68994;BME280;56054;50.968;5.816;2023-04-10T13:20:30;100585.06;;;17.66;42.08
68994;BME280;56054;50.968;5.816;2023-04-10T13:23:30;100570.50;;;17.76;42.16
68994;BME280;56054;50.968;5.816;2023-04-10T13:26:31;100566.53;;;17.62;42.89
68994;BME280;56054;50.968;5.816;2023-04-10T13:29:31;100547.66;;;17.75;43.32
68994;BME280;56054;50.968;5.816;2023-04-10T13:32:32;100544.91;;;17.70;43.62
68994;BME280;56054;50.968;5.816;2023-04-10T13:35:32;100548.31;;;17.68;43.10
68994;BME280;56054;50.968;5.816;2023-04-10T13:38:33;100540.56;;;17.72;43.01
68994;BME280;56054;50.968;5.816;2023-04-10T13:41:33;100527.06;;;17.60;42.90
68994;BME280;56054;50.968;5.816;2023-04-10T13:44:33;100521.28;;;17.72;43.74
68994;BME280;56054;50.968;5.816;2023-04-10T13:47:34;100519.47;;;17.69;43.96
68994;BME280;56054;50.968;5.816;2023-04-10T13:50:34;100504.03;;;17.51;43.17
68994;BME280;56054;50.968;5.816;2023-04-10T13:53:35;100505.34;;;17.66;42.83
68994;BME280;56054;50.968;5.816;2023-04-10T13:56:36;100497.94;;;17.52;42.90
68994;BME280;56054;50.968;5.816;2023-04-10T13:59:36;100473.63;;;17.60;43.20
68994;BME280;56054;50.968;5.816;2023-04-10T14:02:36;100467.50;;;17.59;44.09
68994;BME280;56054;50.968;5.816;2023-04-10T14:05:38;100471.66;;;17.52;43.93
68994;BME280;56054;50.968;5.816;2023-04-10T14:08:38;100460.97;;;17.46;43.81
68994;BME280;56054;50.968;5.816;2023-04-10T14:11:39;100464.50;;;17.47;44.11
68994;BME280;56054;50.968;5.816;2023-04-10T14:14:39;100448.00;;;17.51;44.30
68994;BME280;56054;50.968;5.816;2023-04-10T14:17:40;100448.06;;;17.54;43.71
68994;BME280;56054;50.968;5.816;2023-04-10T14:20:40;100428.66;;;17.49;43.75
68994;BME280;56054;50.968;5.816;2023-04-10T14:23:40;100430.28;;;17.45;44.43
68994;BME280;56054;50.968;5.816;2023-04-10T14:26:41;100432.91;;;17.45;43.80
68994;BME280;56054;50.968;5.816;2023-04-10T14:29:41;100441.66;;;17.46;43.12
68994;BME280;56054;50.968;5.816;2023-04-10T14:32:42;100438.00;;;17.39;44.27
68994;BME280;56054;50.968;5.816;2023-04-10T14:35:43;100438.56;;;17.29;45.89
68994;BME280;56054;50.968;5.816;2023-04-10T14:38:44;100438.03;;;17.12;47.97
68994;BME280;56054;50.968;5.816;2023-04-10T14:41:44;100447.22;;;16.99;47.11
68994;BME280;56054;50.968;5.816;2023-04-10T14:48:22;100440.16;;;16.71;51.90
68994;BME280;56054;50.968;5.816;2023-04-10T14:51:22;100454.69;;;16.61;52.34
68994;BME280;56054;50.968;5.816;2023-04-10T14:54:23;100447.91;;;16.42;52.04
68994;BME280;56054;50.968;5.816;2023-04-10T14:57:23;100436.66;;;16.21;54.88
68994;BME280;56054;50.968;5.816;2023-04-10T15:00:24;100430.00;;;16.05;54.65
68994;BME280;56054;50.968;5.816;2023-04-10T15:03:24;100423.38;;;15.92;57.66
68994;BME280;56054;50.968;5.816;2023-04-10T15:06:25;100424.84;;;15.84;59.21
68994;BME280;56054;50.968;5.816;2023-04-10T15:09:25;100414.44;;;15.63;59.68
68994;BME280;56054;50.968;5.816;2023-04-10T15:12:26;100405.47;;;15.56;60.91
68994;BME280;56054;50.968;5.816;2023-04-10T15:15:26;100384.09;;;15.46;62.27
68994;BME280;56054;50.968;5.816;2023-04-10T15:18:26;100371.22;;;15.28;62.52
68994;BME280;56054;50.968;5.816;2023-04-10T15:21:27;100365.88;;;15.25;62.77
68994;BME280;56054;50.968;5.816;2023-04-10T15:24:27;100358.13;;;15.28;62.72
68994;BME280;56054;50.968;5.816;2023-04-10T15:27:28;100350.44;;;15.32;61.28
68994;BME280;56054;50.968;5.816;2023-04-10T15:30:29;100318.19;;;15.33;59.52
68994;BME280;56054;50.968;5.816;2023-04-10T15:33:29;100315.53;;;15.32;60.55
68994;BME280;56054;50.968;5.816;2023-04-10T15:36:30;100316.53;;;15.35;59.20
68994;BME280;56054;50.968;5.816;2023-04-10T15:39:30;100312.84;;;15.30;60.78
68994;BME280;56054;50.968;5.816;2023-04-10T15:42:34;100312.00;;;15.31;61.80
68994;BME280;56054;50.968;5.816;2023-04-10T15:45:35;100313.69;;;15.29;61.38
68994;BME280;56054;50.968;5.816;2023-04-10T15:48:35;100316.31;;;15.29;60.67
68994;BME280;56054;50.968;5.816;2023-04-10T15:51:36;100325.25;;;15.36;60.27
68994;BME280;56054;50.968;5.816;2023-04-10T15:54:38;100331.41;;;15.36;59.66
68994;BME280;56054;50.968;5.816;2023-04-10T15:57:38;100339.97;;;15.32;60.76
68994;BME280;56054;50.968;5.816;2023-04-10T16:00:41;100333.25;;;15.39;58.83
68994;BME280;56054;50.968;5.816;2023-04-10T16:03:45;100329.56;;;15.34;59.62
68994;BME280;56054;50.968;5.816;2023-04-10T16:06:45;100327.66;;;15.30;60.57
68994;BME280;56054;50.968;5.816;2023-04-10T16:09:45;100315.34;;;15.27;60.70
68994;BME280;56054;50.968;5.816;2023-04-10T16:12:46;100304.09;;;15.30;59.42
68994;BME280;56054;50.968;5.816;2023-04-10T16:15:48;100299.75;;;15.30;59.92
68994;BME280;56054;50.968;5.816;2023-04-10T16:18:48;100302.47;;;15.33;58.52
68994;BME280;56054;50.968;5.816;2023-04-10T16:21:49;100310.13;;;15.27;59.86
68994;BME280;56054;50.968;5.816;2023-04-10T16:24:49;100305.84;;;15.07;63.80
68994;BME280;56054;50.968;5.816;2023-04-10T16:27:54;100281.31;;;15.03;63.09
68994;BME280;56054;50.968;5.816;2023-04-10T16:30:54;100279.09;;;14.91;64.75
68994;BME280;56054;50.968;5.816;2023-04-10T16:33:54;100286.72;;;14.85;66.40
68994;BME280;56054;50.968;5.816;2023-04-10T16:36:55;100277.25;;;14.89;65.17
68994;BME280;56054;50.968;5.816;2023-04-10T16:39:55;100281.44;;;14.84;66.05
68994;BME280;56054;50.968;5.816;2023-04-10T16:42:55;100280.38;;;14.79;69.43
68994;BME280;56054;50.968;5.816;2023-04-10T16:45:59;100263.53;;;14.72;68.18
68994;BME280;56054;50.968;5.816;2023-04-10T16:48:59;100263.72;;;14.76;67.52
68994;BME280;56054;50.968;5.816;2023-04-10T16:52:00;100243.69;;;14.77;66.88
68994;BME280;56054;50.968;5.816;2023-04-10T16:55:00;100239.03;;;14.70;68.19
68994;BME280;56054;50.968;5.816;2023-04-10T16:58:00;100259.78;;;14.65;68.75
68994;BME280;56054;50.968;5.816;2023-04-10T17:01:18;100264.69;;;14.56;69.75
68994;BME280;56054;50.968;5.816;2023-04-10T17:04:18;100264.84;;;14.40;72.12
68994;BME280;56054;50.968;5.816;2023-04-10T17:07:19;100269.13;;;14.38;72.31
68994;BME280;56054;50.968;5.816;2023-04-10T17:10:19;100264.94;;;14.20;76.83
68994;BME280;56054;50.968;5.816;2023-04-10T17:13:20;100246.47;;;14.16;77.23
68994;BME280;56054;50.968;5.816;2023-04-10T17:16:20;100238.53;;;14.14;77.93
68994;BME280;56054;50.968;5.816;2023-04-10T17:19:20;100231.44;;;14.10;77.41
68994;BME280;56054;50.968;5.816;2023-04-10T17:22:21;100234.84;;;14.09;79.12
68994;BME280;56054;50.968;5.816;2023-04-10T17:25:21;100229.81;;;14.13;77.38
68994;BME280;56054;50.968;5.816;2023-04-10T17:28:22;100242.84;;;14.12;77.24
68994;BME280;56054;50.968;5.816;2023-04-10T17:31:22;100235.78;;;14.09;78.38
68994;BME280;56054;50.968;5.816;2023-04-10T17:34:22;100225.47;;;14.14;77.70
68994;BME280;56054;50.968;5.816;2023-04-10T17:37:23;100245.50;;;14.13;77.84
68994;BME280;56054;50.968;5.816;2023-04-10T17:40:23;100265.31;;;14.08;79.10
68994;BME280;56054;50.968;5.816;2023-04-10T17:43:23;100266.84;;;14.03;81.20
68994;BME280;56054;50.968;5.816;2023-04-10T17:46:24;100275.13;;;13.93;86.50
68994;BME280;56054;50.968;5.816;2023-04-10T17:49:24;100274.28;;;13.73;91.77
68994;BME280;56054;50.968;5.816;2023-04-10T17:52:25;100281.78;;;13.46;98.84
68994;BME280;56054;50.968;5.816;2023-04-10T17:55:25;100295.81;;;13.28;100.00
68994;BME280;56054;50.968;5.816;2023-04-10T17:58:25;100308.69;;;13.25;100.00
68994;BME280;56054;50.968;5.816;2023-04-10T18:01:26;100312.16;;;13.06;100.00
68994;BME280;56054;50.968;5.816;2023-04-10T18:04:26;100329.41;;;13.03;100.00
68994;BME280;56054;50.968;5.816;2023-04-10T18:07:27;100326.34;;;12.94;100.00
68994;BME280;56054;50.968;5.816;2023-04-10T18:10:27;100321.66;;;12.87;100.00
68994;BME280;56054;50.968;5.816;2023-04-10T18:13:27;100330.53;;;12.72;100.00
68994;BME280;56054;50.968;5.816;2023-04-10T18:16:28;100335.47;;;12.66;100.00
68994;BME280;56054;50.968;5.816;2023-04-10T18:19:28;100341.78;;;12.53;100.00
68994;BME280;56054;50.968;5.816;2023-04-10T18:22:29;100339.31;;;12.38;100.00
68994;BME280;56054;50.968;5.816;2023-04-10T18:25:29;100336.66;;;12.37;100.00
68994;BME280;56054;50.968;5.816;2023-04-10T18:28:30;100342.28;;;12.28;100.00
68994;BME280;56054;50.968;5.816;2023-04-10T18:31:30;100354.09;;;12.04;100.00
68994;BME280;56054;50.968;5.816;2023-04-10T18:34:31;100365.81;;;11.95;100.00
68994;BME280;56054;50.968;5.816;2023-04-10T18:37:31;100362.91;;;11.73;100.00
68994;BME280;56054;50.968;5.816;2023-04-10T18:40:32;100353.69;;;11.79;100.00
68994;BME280;56054;50.968;5.816;2023-04-10T18:43:32;100358.72;;;11.60;100.00
68994;BME280;56054;50.968;5.816;2023-04-10T18:46:33;100354.09;;;11.54;100.00
68994;BME280;56054;50.968;5.816;2023-04-10T18:49:33;100350.03;;;11.43;100.00
68994;BME280;56054;50.968;5.816;2023-04-10T18:52:33;100329.56;;;11.49;100.00
68994;BME280;56054;50.968;5.816;2023-04-10T18:55:34;100336.06;;;11.41;100.00
68994;BME280;56054;50.968;5.816;2023-04-10T18:58:34;100317.28;;;11.30;100.00
68994;BME280;56054;50.968;5.816;2023-04-10T19:01:34;100308.81;;;11.51;100.00
68994;BME280;56054;50.968;5.816;2023-04-10T19:04:35;100303.19;;;11.43;100.00
68994;BME280;56054;50.968;5.816;2023-04-10T19:07:35;100313.19;;;11.35;100.00
68994;BME280;56054;50.968;5.816;2023-04-10T19:10:36;100305.47;;;11.21;100.00
68994;BME280;56054;50.968;5.816;2023-04-10T19:13:36;100303.78;;;11.21;100.00
68994;BME280;56054;50.968;5.816;2023-04-10T19:16:37;100300.50;;;11.09;100.00
68994;BME280;56054;50.968;5.816;2023-04-10T19:19:37;100297.84;;;11.07;100.00
68994;BME280;56054;50.968;5.816;2023-04-10T19:22:38;100296.44;;;11.14;100.00
68994;BME280;56054;50.968;5.816;2023-04-10T19:25:38;100310.75;;;11.06;100.00
68994;BME280;56054;50.968;5.816;2023-04-10T19:28:38;100304.81;;;11.08;100.00
68994;BME280;56054;50.968;5.816;2023-04-10T19:31:39;100303.84;;;11.06;100.00
68994;BME280;56054;50.968;5.816;2023-04-10T19:34:39;100285.09;;;11.12;100.00
68994;BME280;56054;50.968;5.816;2023-04-10T19:37:40;100290.50;;;11.17;100.00
68994;BME280;56054;50.968;5.816;2023-04-10T19:40:40;100290.22;;;11.10;100.00
68994;BME280;56054;50.968;5.816;2023-04-10T19:43:41;100291.25;;;11.14;100.00
68994;BME280;56054;50.968;5.816;2023-04-10T19:46:41;100321.00;;;11.19;100.00
68994;BME280;56054;50.968;5.816;2023-04-10T19:49:42;100299.97;;;11.14;100.00
68994;BME280;56054;50.968;5.816;2023-04-10T19:52:42;100316.03;;;11.24;100.00
68994;BME280;56054;50.968;5.816;2023-04-10T19:55:43;100330.69;;;11.22;100.00
68994;BME280;56054;50.968;5.816;2023-04-10T19:58:43;100333.09;;;11.19;100.00
68994;BME280;56054;50.968;5.816;2023-04-10T20:01:46;100322.28;;;11.11;100.00
68994;BME280;56054;50.968;5.816;2023-04-10T20:04:46;100324.81;;;11.09;100.00
68994;BME280;56054;50.968;5.816;2023-04-10T20:07:46;100299.31;;;11.02;100.00
68994;BME280;56054;50.968;5.816;2023-04-10T20:10:47;100312.31;;;11.02;100.00
68994;BME280;56054;50.968;5.816;2023-04-10T20:13:47;100313.25;;;10.88;100.00
68994;BME280;56054;50.968;5.816;2023-04-10T20:16:48;100312.13;;;10.83;100.00
68994;BME280;56054;50.968;5.816;2023-04-10T20:19:48;100292.38;;;10.86;100.00
68994;BME280;56054;50.968;5.816;2023-04-10T20:22:49;100261.66;;;10.79;100.00
68994;BME280;56054;50.968;5.816;2023-04-10T20:25:49;100248.16;;;10.70;100.00
68994;BME280;56054;50.968;5.816;2023-04-10T20:28:52;100231.81;;;10.56;100.00
68994;BME280;56054;50.968;5.816;2023-04-10T20:31:53;100231.72;;;10.55;100.00
68994;BME280;56054;50.968;5.816;2023-04-10T20:34:53;100233.84;;;10.62;100.00
68994;BME280;56054;50.968;5.816;2023-04-10T20:37:53;100241.06;;;10.51;100.00
68994;BME280;56054;50.968;5.816;2023-04-10T20:40:54;100246.28;;;10.51;100.00
68994;BME280;56054;50.968;5.816;2023-04-10T20:43:55;100273.84;;;10.49;100.00
68994;BME280;56054;50.968;5.816;2023-04-10T20:46:56;100259.00;;;10.46;100.00
68994;BME280;56054;50.968;5.816;2023-04-10T20:49:56;100232.94;;;10.45;100.00
68994;BME280;56054;50.968;5.816;2023-04-10T20:52:56;100204.44;;;10.46;100.00
68994;BME280;56054;50.968;5.816;2023-04-10T20:55:57;100218.94;;;10.43;100.00
68994;BME280;56054;50.968;5.816;2023-04-10T20:58:57;100211.16;;;10.43;100.00
68994;BME280;56054;50.968;5.816;2023-04-10T21:01:58;100209.22;;;10.39;100.00
68994;BME280;56054;50.968;5.816;2023-04-10T21:04:58;100219.63;;;10.39;100.00
68994;BME280;56054;50.968;5.816;2023-04-10T21:07:58;100220.66;;;10.42;100.00
68994;BME280;56054;50.968;5.816;2023-04-10T21:10:59;100225.88;;;10.27;100.00
68994;BME280;56054;50.968;5.816;2023-04-10T21:13:59;100199.31;;;10.32;100.00
68994;BME280;56054;50.968;5.816;2023-04-10T21:17:00;100182.34;;;10.23;100.00
68994;BME280;56054;50.968;5.816;2023-04-10T21:20:01;100208.06;;;10.19;100.00
68994;BME280;56054;50.968;5.816;2023-04-10T21:23:01;100208.16;;;10.20;100.00
68994;BME280;56054;50.968;5.816;2023-04-10T21:26:02;100211.56;;;10.19;100.00
68994;BME280;56054;50.968;5.816;2023-04-10T21:29:02;100201.00;;;10.16;100.00
68994;BME280;56054;50.968;5.816;2023-04-10T21:32:02;100207.28;;;10.20;100.00
68994;BME280;56054;50.968;5.816;2023-04-10T21:35:03;100212.09;;;10.14;100.00
68994;BME280;56054;50.968;5.816;2023-04-10T21:38:04;100221.59;;;10.13;100.00
68994;BME280;56054;50.968;5.816;2023-04-10T21:41:05;100219.88;;;10.14;100.00
68994;BME280;56054;50.968;5.816;2023-04-10T21:44:05;100214.78;;;10.15;100.00